sensor_id;sensor_type;location;lat;lon;timestamp;pressure;altitude;pressure_sealevel;temperature;humidity
9738;BME280;4908;47.446;13.900;2023-08-24T00:01:47;93285.66;;;18.57;100.00
9738;BME280;4908;47.446;13.900;2023-08-24T00:04:14;93281.00;;;18.58;100.00
9738;BME280;4908;47.446;13.900;2023-08-24T00:06:41;93286.34;;;18.61;100.00
9738;BME280;4908;47.446;13.900;2023-08-24T00:09:08;93282.59;;;18.55;100.00
9738;BME280;4908;47.446;13.900;2023-08-24T00:11:35;93276.69;;;18.60;100.00
9738;BME280;4908;47.446;13.900;2023-08-24T00:14:03;93276.84;;;18.53;100.00
9738;BME280;4908;47.446;13.900;2023-08-24T00:16:30;93278.09;;;18.49;100.00
9738;BME280;4908;47.446;13.900;2023-08-24T00:18:59;93289.94;;;18.35;100.00
9738;BME280;4908;47.446;13.900;2023-08-24T00:21:26;93290.09;;;18.28;100.00
9738;BME280;4908;47.446;13.900;2023-08-24T00:23:54;93288.09;;;18.52;100.00
9738;BME280;4908;47.446;13.900;2023-08-24T00:26:22;93282.72;;;18.48;100.00
9738;BME280;4908;47.446;13.900;2023-08-24T00:28:49;93283.78;;;18.54;100.00
9738;BME280;4908;47.446;13.900;2023-08-24T00:31:17;93272.78;;;18.22;100.00
9738;BME280;4908;47.446;13.900;2023-08-24T00:33:44;93281.03;;;18.15;100.00
9738;BME280;4908;47.446;13.900;2023-08-24T00:36:13;93275.53;;;18.19;100.00
9738;BME280;4908;47.446;13.900;2023-08-24T00:38:40;93279.34;;;18.21;100.00
9738;BME280;4908;47.446;13.900;2023-08-24T00:41:08;93282.06;;;18.21;100.00
9738;BME280;4908;47.446;13.900;2023-08-24T00:43:36;93271.72;;;18.16;100.00
9738;BME280;4908;47.446;13.900;2023-08-24T00:46:03;93273.16;;;18.21;100.00
9738;BME280;4908;47.446;13.900;2023-08-24T00:48:31;93269.34;;;18.18;100.00
9738;BME280;4908;47.446;13.900;2023-08-24T00:51:00;93273.31;;;18.14;100.00
9738;BME280;4908;47.446;13.900;2023-08-24T00:53:30;93272.06;;;18.18;100.00
9738;BME280;4908;47.446;13.900;2023-08-24T00:55:58;93274.78;;;18.18;100.00
9738;BME280;4908;47.446;13.900;2023-08-24T00:58:27;93267.25;;;18.06;100.00
9738;BME280;4908;47.446;13.900;2023-08-24T01:00:55;93269.69;;;18.01;100.00
9738;BME280;4908;47.446;13.900;2023-08-24T01:03:24;93272.22;;;17.88;100.00
9738;BME280;4908;47.446;13.900;2023-08-24T01:05:51;93266.22;;;17.77;100.00
9738;BME280;4908;47.446;13.900;2023-08-24T01:08:18;93265.53;;;17.73;100.00
9738;BME280;4908;47.446;13.900;2023-08-24T01:10:52;93262.13;;;17.69;100.00
9738;BME280;4908;47.446;13.900;2023-08-24T01:13:30;93259.53;;;17.62;100.00
9738;BME280;4908;47.446;13.900;2023-08-24T01:16:03;93263.88;;;17.79;100.00
9738;BME280;4908;47.446;13.900;2023-08-24T01:18:33;93262.16;;;17.88;100.00
9738;BME280;4908;47.446;13.900;2023-08-24T01:21:02;93265.75;;;17.82;100.00
9738;BME280;4908;47.446;13.900;2023-08-24T01:23:37;93262.94;;;17.66;100.00
9738;BME280;4908;47.446;13.900;2023-08-24T01:26:13;93255.56;;;17.66;100.00
9738;BME280;4908;47.446;13.900;2023-08-24T01:28:42;93264.81;;;17.69;100.00
9738;BME280;4908;47.446;13.900;2023-08-24T01:31:10;93258.69;;;17.65;100.00
9738;BME280;4908;47.446;13.900;2023-08-24T01:33:39;93255.22;;;17.64;100.00
9738;BME280;4908;47.446;13.900;2023-08-24T01:36:07;93249.41;;;17.66;100.00
9738;BME280;4908;47.446;13.900;2023-08-24T01:38:35;93244.88;;;17.59;100.00
9738;BME280;4908;47.446;13.900;2023-08-24T01:41:09;93237.97;;;17.55;100.00
9738;BME280;4908;47.446;13.900;2023-08-24T01:43:42;93241.53;;;17.52;100.00
9738;BME280;4908;47.446;13.900;2023-08-24T01:46:13;93231.84;;;17.51;100.00
9738;BME280;4908;47.446;13.900;2023-08-24T01:48:42;93234.38;;;17.38;100.00
9738;BME280;4908;47.446;13.900;2023-08-24T01:51:10;93230.53;;;17.36;100.00
9738;BME280;4908;47.446;13.900;2023-08-24T01:53:38;93231.09;;;17.47;100.00
9738;BME280;4908;47.446;13.900;2023-08-24T01:56:09;93234.72;;;17.40;100.00
9738;BME280;4908;47.446;13.900;2023-08-24T01:58:37;93232.78;;;17.41;100.00
9738;BME280;4908;47.446;13.900;2023-08-24T02:01:06;93229.59;;;17.46;100.00
9738;BME280;4908;47.446;13.900;2023-08-24T02:03:34;93228.19;;;17.38;100.00
9738;BME280;4908;47.446;13.900;2023-08-24T02:06:01;93229.59;;;17.46;100.00
9738;BME280;4908;47.446;13.900;2023-08-24T02:08:28;93232.31;;;17.46;100.00
9738;BME280;4908;47.446;13.900;2023-08-24T02:10:55;93228.88;;;17.42;100.00
9738;BME280;4908;47.446;13.900;2023-08-24T02:13:22;93224.31;;;17.16;100.00
9738;BME280;4908;47.446;13.900;2023-08-24T02:15:50;93222.78;;;16.88;100.00
9738;BME280;4908;47.446;13.900;2023-08-24T02:18:18;93219.09;;;16.75;100.00
9738;BME280;4908;47.446;13.900;2023-08-24T02:20:45;93217.09;;;16.82;100.00
9738;BME280;4908;47.446;13.900;2023-08-24T02:23:12;93223.69;;;17.04;100.00
9738;BME280;4908;47.446;13.900;2023-08-24T02:25:42;93225.16;;;17.09;100.00
9738;BME280;4908;47.446;13.900;2023-08-24T02:28:09;93220.88;;;17.12;100.00
9738;BME280;4908;47.446;13.900;2023-08-24T02:30:37;93227.47;;;17.11;100.00
9738;BME280;4908;47.446;13.900;2023-08-24T02:33:05;93233.09;;;17.20;100.00
9738;BME280;4908;47.446;13.900;2023-08-24T02:35:34;93231.59;;;17.19;100.00
9738;BME280;4908;47.446;13.900;2023-08-24T02:38:02;93231.81;;;17.04;100.00
9738;BME280;4908;47.446;13.900;2023-08-24T02:40:29;93233.44;;;16.98;100.00
9738;BME280;4908;47.446;13.900;2023-08-24T02:42:56;93240.63;;;17.09;100.00
9738;BME280;4908;47.446;13.900;2023-08-24T02:45:23;93232.44;;;17.16;100.00
9738;BME280;4908;47.446;13.900;2023-08-24T02:47:50;93236.13;;;16.98;100.00
9738;BME280;4908;47.446;13.900;2023-08-24T02:50:18;93227.56;;;17.03;100.00
9738;BME280;4908;47.446;13.900;2023-08-24T02:52:46;93231.00;;;17.08;100.00
9738;BME280;4908;47.446;13.900;2023-08-24T02:55:13;93230.94;;;17.11;100.00
9738;BME280;4908;47.446;13.900;2023-08-24T02:57:41;93223.94;;;17.14;100.00
9738;BME280;4908;47.446;13.900;2023-08-24T03:00:08;93225.81;;;17.17;100.00
9738;BME280;4908;47.446;13.900;2023-08-24T03:02:39;93226.25;;;17.15;100.00
9738;BME280;4908;47.446;13.900;2023-08-24T03:05:07;93229.41;;;17.10;100.00
9738;BME280;4908;47.446;13.900;2023-08-24T03:07:34;93236.13;;;16.98;100.00
9738;BME280;4908;47.446;13.900;2023-08-24T03:10:03;93226.94;;;16.92;100.00
9738;BME280;4908;47.446;13.900;2023-08-24T03:12:30;93226.81;;;16.76;100.00
9738;BME280;4908;47.446;13.900;2023-08-24T03:14:57;93228.69;;;16.79;100.00
9738;BME280;4908;47.446;13.900;2023-08-24T03:17:25;93222.13;;;16.80;100.00
9738;BME280;4908;47.446;13.900;2023-08-24T03:19:52;93226.72;;;16.83;100.00
9738;BME280;4908;47.446;13.900;2023-08-24T03:22:19;93227.63;;;16.73;100.00
9738;BME280;4908;47.446;13.900;2023-08-24T03:24:46;93223.19;;;16.60;100.00
9738;BME280;4908;47.446;13.900;2023-08-24T03:27:15;93227.00;;;16.62;100.00
9738;BME280;4908;47.446;13.900;2023-08-24T03:29:42;93227.38;;;16.64;100.00
9738;BME280;4908;47.446;13.900;2023-08-24T03:32:09;93227.25;;;16.71;100.00
9738;BME280;4908;47.446;13.900;2023-08-24T03:34:36;93227.53;;;16.80;100.00
9738;BME280;4908;47.446;13.900;2023-08-24T03:37:04;93229.88;;;16.78;100.00
9738;BME280;4908;47.446;13.900;2023-08-24T03:39:31;93224.47;;;16.78;100.00
9738;BME280;4908;47.446;13.900;2023-08-24T03:41:58;93221.06;;;16.74;100.00
9738;BME280;4908;47.446;13.900;2023-08-24T03:44:27;93229.97;;;16.71;100.00
9738;BME280;4908;47.446;13.900;2023-08-24T03:46:54;93223.75;;;16.74;100.00
9738;BME280;4908;47.446;13.900;2023-08-24T03:49:21;93225.22;;;16.79;100.00
9738;BME280;4908;47.446;13.900;2023-08-24T03:51:48;93226.47;;;16.74;100.00
9738;BME280;4908;47.446;13.900;2023-08-24T03:54:15;93231.81;;;16.51;100.00
9738;BME280;4908;47.446;13.900;2023-08-24T03:56:42;93236.34;;;16.58;100.00
9738;BME280;4908;47.446;13.900;2023-08-24T03:59:10;93234.09;;;16.53;100.00
9738;BME280;4908;47.446;13.900;2023-08-24T04:01:38;93234.19;;;16.42;100.00
9738;BME280;4908;47.446;13.900;2023-08-24T04:04:05;93244.56;;;16.51;100.00
9738;BME280;4908;47.446;13.900;2023-08-24T04:06:33;93251.84;;;16.54;100.00
9738;BME280;4908;47.446;13.900;2023-08-24T04:09:00;93247.97;;;16.55;100.00
9738;BME280;4908;47.446;13.900;2023-08-24T04:11:27;93242.56;;;16.55;100.00
9738;BME280;4908;47.446;13.900;2023-08-24T04:13:54;93244.50;;;16.54;100.00
9738;BME280;4908;47.446;13.900;2023-08-24T04:16:21;93250.72;;;16.48;100.00
9738;BME280;4908;47.446;13.900;2023-08-24T04:18:50;93248.03;;;16.51;100.00
9738;BME280;4908;47.446;13.900;2023-08-24T04:21:17;93245.69;;;16.53;100.00
9738;BME280;4908;47.446;13.900;2023-08-24T04:23:44;93246.41;;;16.57;100.00
9738;BME280;4908;47.446;13.900;2023-08-24T04:26:11;93258.75;;;16.58;100.00
9738;BME280;4908;47.446;13.900;2023-08-24T04:28:38;93248.25;;;16.64;100.00
9738;BME280;4908;47.446;13.900;2023-08-24T04:31:06;93254.06;;;16.62;100.00
9738;BME280;4908;47.446;13.900;2023-08-24T04:33:33;93257.84;;;16.68;100.00
9738;BME280;4908;47.446;13.900;2023-08-24T04:36:02;93261.72;;;16.67;100.00
9738;BME280;4908;47.446;13.900;2023-08-24T04:38:30;93256.22;;;16.74;100.00
9738;BME280;4908;47.446;13.900;2023-08-24T04:40:57;93257.03;;;16.71;100.00
9738;BME280;4908;47.446;13.900;2023-08-24T04:43:24;93248.34;;;16.83;100.00
9738;BME280;4908;47.446;13.900;2023-08-24T04:45:51;93256.34;;;16.90;100.00
9738;BME280;4908;47.446;13.900;2023-08-24T04:48:19;93256.78;;;16.89;100.00
9738;BME280;4908;47.446;13.900;2023-08-24T04:50:47;93254.44;;;16.91;100.00
9738;BME280;4908;47.446;13.900;2023-08-24T04:53:17;93255.91;;;16.95;100.00
9738;BME280;4908;47.446;13.900;2023-08-24T04:55:45;93257.34;;;17.03;100.00
9738;BME280;4908;47.446;13.900;2023-08-24T04:58:13;93255.09;;;16.98;100.00
9738;BME280;4908;47.446;13.900;2023-08-24T05:00:40;93251.09;;;17.07;100.00
9738;BME280;4908;47.446;13.900;2023-08-24T05:03:07;93251.38;;;17.16;100.00
9738;BME280;4908;47.446;13.900;2023-08-24T05:05:35;93243.25;;;17.16;100.00
9738;BME280;4908;47.446;13.900;2023-08-24T05:08:05;93245.91;;;17.19;100.00
9738;BME280;4908;47.446;13.900;2023-08-24T05:10:37;93252.53;;;17.15;100.00
9738;BME280;4908;47.446;13.900;2023-08-24T05:13:04;93247.72;;;17.26;100.00
9738;BME280;4908;47.446;13.900;2023-08-24T05:15:31;93249.97;;;17.31;100.00
9738;BME280;4908;47.446;13.900;2023-08-24T05:17:59;93256.09;;;17.35;100.00
9738;BME280;4908;47.446;13.900;2023-08-24T05:20:26;93252.53;;;17.15;100.00
9738;BME280;4908;47.446;13.900;2023-08-24T05:22:53;93253.72;;;17.14;100.00
9738;BME280;4908;47.446;13.900;2023-08-24T05:25:21;93260.09;;;17.27;100.00
9738;BME280;4908;47.446;13.900;2023-08-24T05:27:50;93259.03;;;17.44;100.00
9738;BME280;4908;47.446;13.900;2023-08-24T05:30:17;93257.34;;;17.53;100.00
9738;BME280;4908;47.446;13.900;2023-08-24T05:32:45;93257.19;;;17.64;100.00
9738;BME280;4908;47.446;13.900;2023-08-24T05:35:12;93263.34;;;17.64;100.00
9738;BME280;4908;47.446;13.900;2023-08-24T05:37:39;93253.13;;;17.75;100.00
9738;BME280;4908;47.446;13.900;2023-08-24T05:40:07;93259.88;;;17.87;100.00
9738;BME280;4908;47.446;13.900;2023-08-24T05:42:34;93252.78;;;17.93;100.00
9738;BME280;4908;47.446;13.900;2023-08-24T05:45:04;93253.78;;;18.03;100.00
9738;BME280;4908;47.446;13.900;2023-08-24T05:47:31;93248.78;;;18.01;100.00
9738;BME280;4908;47.446;13.900;2023-08-24T05:49:59;93247.31;;;18.16;100.00
9738;BME280;4908;47.446;13.900;2023-08-24T05:52:26;93250.66;;;18.24;100.00
9738;BME280;4908;47.446;13.900;2023-08-24T05:54:53;93249.06;;;18.26;100.00
9738;BME280;4908;47.446;13.900;2023-08-24T05:57:20;93253.41;;;18.43;100.00
9738;BME280;4908;47.446;13.900;2023-08-24T05:59:47;93248.00;;;18.59;100.00
9738;BME280;4908;47.446;13.900;2023-08-24T06:02:16;93246.34;;;18.65;100.00
9738;BME280;4908;47.446;13.900;2023-08-24T06:04:43;93253.47;;;18.75;100.00
9738;BME280;4908;47.446;13.900;2023-08-24T06:07:11;93250.28;;;18.81;100.00
9738;BME280;4908;47.446;13.900;2023-08-24T06:09:38;93250.38;;;18.93;100.00
9738;BME280;4908;47.446;13.900;2023-08-24T06:12:06;93248.19;;;19.04;100.00
9738;BME280;4908;47.446;13.900;2023-08-24T06:14:33;93252.78;;;19.07;100.00
9738;BME280;4908;47.446;13.900;2023-08-24T06:17:01;93249.66;;;19.09;100.00
9738;BME280;4908;47.446;13.900;2023-08-24T06:19:30;93253.56;;;19.24;100.00
9738;BME280;4908;47.446;13.900;2023-08-24T06:21:57;93248.66;;;19.19;100.00
9738;BME280;4908;47.446;13.900;2023-08-24T06:24:24;93252.72;;;19.27;100.00
9738;BME280;4908;47.446;13.900;2023-08-24T06:26:52;93250.28;;;19.32;100.00
9738;BME280;4908;47.446;13.900;2023-08-24T06:29:19;93249.53;;;19.48;100.00
9738;BME280;4908;47.446;13.900;2023-08-24T06:31:46;93243.09;;;19.58;100.00
9738;BME280;4908;47.446;13.900;2023-08-24T06:34:13;93249.19;;;19.62;100.00
9738;BME280;4908;47.446;13.900;2023-08-24T06:36:42;93243.31;;;19.47;100.00
9738;BME280;4908;47.446;13.900;2023-08-24T06:39:09;93247.50;;;19.68;100.00
9738;BME280;4908;47.446;13.900;2023-08-24T06:41:36;93258.25;;;19.88;100.00
9738;BME280;4908;47.446;13.900;2023-08-24T06:44:04;93256.38;;;19.85;100.00
9738;BME280;4908;47.446;13.900;2023-08-24T06:46:31;93251.09;;;19.94;100.00
9738;BME280;4908;47.446;13.900;2023-08-24T06:48:58;93250.00;;;19.91;100.00
9738;BME280;4908;47.446;13.900;2023-08-24T06:51:26;93247.63;;;19.77;100.00
9738;BME280;4908;47.446;13.900;2023-08-24T06:53:54;93253.28;;;19.99;100.00
9738;BME280;4908;47.446;13.900;2023-08-24T06:56:22;93254.41;;;20.01;100.00
9738;BME280;4908;47.446;13.900;2023-08-24T06:58:49;93254.97;;;20.09;100.00
9738;BME280;4908;47.446;13.900;2023-08-24T07:01:16;93248.84;;;20.21;100.00
9738;BME280;4908;47.446;13.900;2023-08-24T07:03:43;93239.06;;;20.07;100.00
9738;BME280;4908;47.446;13.900;2023-08-24T07:06:10;93231.44;;;20.18;100.00
9738;BME280;4908;47.446;13.900;2023-08-24T07:08:39;93236.00;;;20.21;100.00
9738;BME280;4908;47.446;13.900;2023-08-24T07:11:07;93233.72;;;20.20;100.00
9738;BME280;4908;47.446;13.900;2023-08-24T07:13:35;93231.56;;;20.27;100.00
9738;BME280;4908;47.446;13.900;2023-08-24T07:16:02;93237.94;;;20.49;100.00
9738;BME280;4908;47.446;13.900;2023-08-24T07:18:29;93231.19;;;20.41;100.00
9738;BME280;4908;47.446;13.900;2023-08-24T07:20:57;93234.81;;;20.64;100.00
9738;BME280;4908;47.446;13.900;2023-08-24T07:23:24;93237.66;;;20.73;100.00
9738;BME280;4908;47.446;13.900;2023-08-24T07:25:51;93233.41;;;20.72;100.00
9738;BME280;4908;47.446;13.900;2023-08-24T07:28:20;93237.78;;;20.82;100.00
9738;BME280;4908;47.446;13.900;2023-08-24T07:30:47;93235.72;;;20.86;100.00
9738;BME280;4908;47.446;13.900;2023-08-24T07:33:15;93228.53;;;20.92;100.00
9738;BME280;4908;47.446;13.900;2023-08-24T07:35:42;93222.69;;;21.06;100.00
9738;BME280;4908;47.446;13.900;2023-08-24T07:38:09;93219.19;;;21.30;100.00
9738;BME280;4908;47.446;13.900;2023-08-24T07:40:36;93226.16;;;21.44;100.00
9738;BME280;4908;47.446;13.900;2023-08-24T07:43:04;93225.50;;;21.40;100.00
9738;BME280;4908;47.446;13.900;2023-08-24T07:45:32;93215.97;;;21.57;100.00
9738;BME280;4908;47.446;13.900;2023-08-24T07:48:00;93215.19;;;21.69;100.00
9738;BME280;4908;47.446;13.900;2023-08-24T07:50:27;93219.78;;;21.72;100.00
9738;BME280;4908;47.446;13.900;2023-08-24T07:52:54;93210.72;;;21.75;100.00
9738;BME280;4908;47.446;13.900;2023-08-24T07:55:21;93202.72;;;21.93;100.00
9738;BME280;4908;47.446;13.900;2023-08-24T07:57:48;93207.66;;;21.86;100.00
9738;BME280;4908;47.446;13.900;2023-08-24T08:00:16;93200.72;;;22.06;100.00
9738;BME280;4908;47.446;13.900;2023-08-24T08:02:45;93198.50;;;22.14;100.00
9738;BME280;4908;47.446;13.900;2023-08-24T08:05:12;93201.59;;;22.25;100.00
9738;BME280;4908;47.446;13.900;2023-08-24T08:07:39;93203.75;;;22.08;100.00
9738;BME280;4908;47.446;13.900;2023-08-24T08:10:07;93203.59;;;22.24;100.00
9738;BME280;4908;47.446;13.900;2023-08-24T08:12:34;93198.09;;;22.46;100.00
9738;BME280;4908;47.446;13.900;2023-08-24T08:15:02;93197.94;;;22.62;100.00
9738;BME280;4908;47.446;13.900;2023-08-24T08:17:30;93200.13;;;22.76;100.00
9738;BME280;4908;47.446;13.900;2023-08-24T08:20:00;93199.16;;;22.92;100.00
9738;BME280;4908;47.446;13.900;2023-08-24T08:22:28;93194.03;;;23.03;100.00
9738;BME280;4908;47.446;13.900;2023-08-24T08:24:55;93190.16;;;23.22;100.00
9738;BME280;4908;47.446;13.900;2023-08-24T08:27:23;93193.91;;;23.37;100.00
9738;BME280;4908;47.446;13.900;2023-08-24T08:29:51;93190.34;;;23.28;100.00
9738;BME280;4908;47.446;13.900;2023-08-24T08:32:18;93188.97;;;23.23;100.00
9738;BME280;4908;47.446;13.900;2023-08-24T08:34:45;93183.66;;;23.29;100.00
9738;BME280;4908;47.446;13.900;2023-08-24T08:37:14;93177.50;;;23.46;100.00
9738;BME280;4908;47.446;13.900;2023-08-24T08:39:41;93176.63;;;23.58;100.00
9738;BME280;4908;47.446;13.900;2023-08-24T08:42:11;93172.84;;;23.83;100.00
9738;BME280;4908;47.446;13.900;2023-08-24T08:44:41;93173.91;;;23.76;100.00
9738;BME280;4908;47.446;13.900;2023-08-24T08:47:11;93168.28;;;23.80;100.00
9738;BME280;4908;47.446;13.900;2023-08-24T08:49:39;93172.38;;;23.75;100.00
9738;BME280;4908;47.446;13.900;2023-08-24T08:52:07;93175.44;;;23.86;100.00
9738;BME280;4908;47.446;13.900;2023-08-24T08:54:35;93169.81;;;23.99;100.00
9738;BME280;4908;47.446;13.900;2023-08-24T08:57:03;93174.84;;;24.28;100.00
9738;BME280;4908;47.446;13.900;2023-08-24T08:59:30;93171.78;;;24.44;100.00
9738;BME280;4908;47.446;13.900;2023-08-24T09:01:58;93173.75;;;24.52;100.00
9738;BME280;4908;47.446;13.900;2023-08-24T09:04:27;93171.75;;;24.62;100.00
9738;BME280;4908;47.446;13.900;2023-08-24T09:06:56;93166.28;;;24.53;100.00
9738;BME280;4908;47.446;13.900;2023-08-24T09:09:24;93165.34;;;24.65;100.00
9738;BME280;4908;47.446;13.900;2023-08-24T09:11:53;93165.63;;;24.85;100.00
9738;BME280;4908;47.446;13.900;2023-08-24T09:14:21;93154.34;;;24.92;100.00
9738;BME280;4908;47.446;13.900;2023-08-24T09:16:49;93157.72;;;24.78;100.00
9738;BME280;4908;47.446;13.900;2023-08-24T09:19:16;93150.72;;;25.19;100.00
9738;BME280;4908;47.446;13.900;2023-08-24T09:21:44;93150.09;;;25.24;100.00
9738;BME280;4908;47.446;13.900;2023-08-24T09:24:11;93136.22;;;25.27;100.00
9738;BME280;4908;47.446;13.900;2023-08-24T09:26:41;93135.91;;;25.25;100.00
9738;BME280;4908;47.446;13.900;2023-08-24T09:29:14;93127.16;;;25.45;100.00
9738;BME280;4908;47.446;13.900;2023-08-24T09:31:42;93128.44;;;25.58;100.00
9738;BME280;4908;47.446;13.900;2023-08-24T09:34:10;93124.28;;;25.63;100.00
9738;BME280;4908;47.446;13.900;2023-08-24T09:36:38;93126.13;;;25.81;100.00
9738;BME280;4908;47.446;13.900;2023-08-24T09:39:05;93122.75;;;25.86;100.00
9738;BME280;4908;47.446;13.900;2023-08-24T09:41:40;93118.81;;;26.01;100.00
9738;BME280;4908;47.446;13.900;2023-08-24T09:44:08;93110.53;;;25.87;100.00
9738;BME280;4908;47.446;13.900;2023-08-24T09:46:37;93106.13;;;26.04;100.00
9738;BME280;4908;47.446;13.900;2023-08-24T09:49:05;93104.41;;;26.44;100.00
9738;BME280;4908;47.446;13.900;2023-08-24T09:51:33;93094.81;;;26.54;100.00
9738;BME280;4908;47.446;13.900;2023-08-24T09:54:04;93097.88;;;26.71;100.00
9738;BME280;4908;47.446;13.900;2023-08-24T09:56:35;93079.09;;;26.84;100.00
9738;BME280;4908;47.446;13.900;2023-08-24T09:59:10;93088.19;;;26.90;100.00
9738;BME280;4908;47.446;13.900;2023-08-24T10:01:41;93080.16;;;27.07;100.00
9738;BME280;4908;47.446;13.900;2023-08-24T10:04:09;93075.03;;;27.14;100.00
9738;BME280;4908;47.446;13.900;2023-08-24T10:06:39;93082.25;;;27.32;100.00
9738;BME280;4908;47.446;13.900;2023-08-24T10:09:08;93085.13;;;27.37;100.00
9738;BME280;4908;47.446;13.900;2023-08-24T10:11:43;93074.28;;;27.48;100.00
9738;BME280;4908;47.446;13.900;2023-08-24T10:14:19;93063.66;;;27.62;100.00
9738;BME280;4908;47.446;13.900;2023-08-24T10:16:49;93060.84;;;27.56;100.00
9738;BME280;4908;47.446;13.900;2023-08-24T10:19:17;93057.34;;;27.76;100.00
9738;BME280;4908;47.446;13.900;2023-08-24T10:21:45;93060.91;;;27.82;100.00
9738;BME280;4908;47.446;13.900;2023-08-24T10:24:14;93055.66;;;28.04;100.00
9738;BME280;4908;47.446;13.900;2023-08-24T10:26:43;93061.88;;;27.99;100.00
9738;BME280;4908;47.446;13.900;2023-08-24T10:29:10;93056.59;;;27.95;100.00
9738;BME280;4908;47.446;13.900;2023-08-24T10:31:39;93045.09;;;28.22;100.00
9738;BME280;4908;47.446;13.900;2023-08-24T10:34:09;93044.53;;;28.44;100.00
9738;BME280;4908;47.446;13.900;2023-08-24T10:36:38;93041.50;;;28.42;100.00
9738;BME280;4908;47.446;13.900;2023-08-24T10:39:06;93037.06;;;28.50;100.00
9738;BME280;4908;47.446;13.900;2023-08-24T10:41:49;93036.16;;;28.33;100.00
9738;BME280;4908;47.446;13.900;2023-08-24T10:44:21;93027.03;;;28.53;100.00
9738;BME280;4908;47.446;13.900;2023-08-24T10:47:11;93031.72;;;28.67;100.00
9738;BME280;4908;47.446;13.900;2023-08-24T10:49:41;93022.38;;;28.95;100.00
9738;BME280;4908;47.446;13.900;2023-08-24T10:52:19;93019.66;;;29.01;100.00
9738;BME280;4908;47.446;13.900;2023-08-24T10:54:46;93024.72;;;29.08;100.00
9738;BME280;4908;47.446;13.900;2023-08-24T10:57:22;93017.06;;;29.29;100.00
9738;BME280;4908;47.446;13.900;2023-08-24T10:59:59;93007.34;;;29.44;100.00
9738;BME280;4908;47.446;13.900;2023-08-24T11:02:27;93001.84;;;29.44;100.00
9738;BME280;4908;47.446;13.900;2023-08-24T11:05:06;92999.66;;;29.59;100.00
9738;BME280;4908;47.446;13.900;2023-08-24T11:07:33;92999.94;;;29.67;100.00
9738;BME280;4908;47.446;13.900;2023-08-24T11:10:11;92999.22;;;29.83;100.00
9738;BME280;4908;47.446;13.900;2023-08-24T11:13:07;92991.25;;;29.96;92.32
9738;BME280;4908;47.446;13.900;2023-08-24T11:15:37;92991.50;;;30.03;94.30
9738;BME280;4908;47.446;13.900;2023-08-24T11:18:21;92992.72;;;29.86;88.06
9738;BME280;4908;47.446;13.900;2023-08-24T11:20:51;92989.22;;;29.91;92.88
9738;BME280;4908;47.446;13.900;2023-08-24T11:23:20;92983.22;;;30.15;87.76
9738;BME280;4908;47.446;13.900;2023-08-24T11:25:49;92986.78;;;30.37;88.78
9738;BME280;4908;47.446;13.900;2023-08-24T11:28:17;92988.31;;;30.60;92.22
9738;BME280;4908;47.446;13.900;2023-08-24T11:30:46;92981.75;;;30.74;93.54
9738;BME280;4908;47.446;13.900;2023-08-24T11:33:14;92979.25;;;30.87;85.58
9738;BME280;4908;47.446;13.900;2023-08-24T11:35:43;92974.47;;;30.60;89.11
9738;BME280;4908;47.446;13.900;2023-08-24T11:38:12;92973.69;;;30.76;82.61
9738;BME280;4908;47.446;13.900;2023-08-24T11:40:39;92970.69;;;30.97;88.93
9738;BME280;4908;47.446;13.900;2023-08-24T11:43:06;92975.44;;;30.96;80.77
9738;BME280;4908;47.446;13.900;2023-08-24T11:45:35;92971.84;;;31.23;79.43
9738;BME280;4908;47.446;13.900;2023-08-24T11:48:04;92975.81;;;31.50;79.48
9738;BME280;4908;47.446;13.900;2023-08-24T11:50:32;92974.66;;;31.81;81.05
9738;BME280;4908;47.446;13.900;2023-08-24T11:53:01;92968.06;;;31.89;85.06
9738;BME280;4908;47.446;13.900;2023-08-24T11:55:29;92975.78;;;32.07;83.93
9738;BME280;4908;47.446;13.900;2023-08-24T11:57:57;92968.09;;;32.24;83.43
9738;BME280;4908;47.446;13.900;2023-08-24T12:00:24;92966.94;;;32.49;76.32
9738;BME280;4908;47.446;13.900;2023-08-24T12:02:52;92966.78;;;32.36;74.31
9738;BME280;4908;47.446;13.900;2023-08-24T12:05:21;92961.38;;;32.49;64.71
9738;BME280;4908;47.446;13.900;2023-08-24T12:07:49;92960.50;;;32.30;73.05
9738;BME280;4908;47.446;13.900;2023-08-24T12:10:17;92955.09;;;32.49;74.21
9738;BME280;4908;47.446;13.900;2023-08-24T12:12:46;92952.44;;;32.32;72.24
9738;BME280;4908;47.446;13.900;2023-08-24T12:15:18;92953.53;;;32.53;72.90
9738;BME280;4908;47.446;13.900;2023-08-24T12:17:46;92947.66;;;32.62;68.41
9738;BME280;4908;47.446;13.900;2023-08-24T12:20:20;92937.88;;;32.86;72.02
9738;BME280;4908;47.446;13.900;2023-08-24T12:22:52;92930.59;;;33.07;65.54
9738;BME280;4908;47.446;13.900;2023-08-24T12:25:22;92925.38;;;33.22;65.69
9738;BME280;4908;47.446;13.900;2023-08-24T12:27:52;92923.75;;;33.32;62.14
9738;BME280;4908;47.446;13.900;2023-08-24T12:30:20;92916.56;;;33.42;62.33
9738;BME280;4908;47.446;13.900;2023-08-24T12:32:48;92920.22;;;33.56;60.97
9738;BME280;4908;47.446;13.900;2023-08-24T12:35:16;92917.56;;;33.63;54.46
9738;BME280;4908;47.446;13.900;2023-08-24T12:37:44;92909.59;;;33.91;52.10
9738;BME280;4908;47.446;13.900;2023-08-24T12:40:12;92906.78;;;34.28;48.78
9738;BME280;4908;47.446;13.900;2023-08-24T12:42:40;92904.47;;;34.46;45.46
9738;BME280;4908;47.446;13.900;2023-08-24T12:45:09;92897.59;;;34.78;43.47
9738;BME280;4908;47.446;13.900;2023-08-24T12:47:37;92893.66;;;35.00;42.23
9738;BME280;4908;47.446;13.900;2023-08-24T12:50:06;92894.94;;;35.25;42.82
9738;BME280;4908;47.446;13.900;2023-08-24T12:52:34;92888.75;;;35.45;41.09
9738;BME280;4908;47.446;13.900;2023-08-24T12:55:01;92885.16;;;35.71;41.04
9738;BME280;4908;47.446;13.900;2023-08-24T12:57:30;92889.31;;;35.77;39.35
9738;BME280;4908;47.446;13.900;2023-08-24T12:59:57;92885.19;;;36.05;38.74
9738;BME280;4908;47.446;13.900;2023-08-24T13:02:26;92880.09;;;36.16;34.77
9738;BME280;4908;47.446;13.900;2023-08-24T13:04:53;92872.81;;;36.34;34.42
9738;BME280;4908;47.446;13.900;2023-08-24T13:07:21;92862.69;;;36.23;36.82
9738;BME280;4908;47.446;13.900;2023-08-24T13:09:48;92862.13;;;36.66;36.78